createdAt,value
2016-10-01T00:00:11.587Z,13.19
2016-10-01T00:01:11.614Z,13.13
2016-10-01T00:02:11.632Z,13.27
2016-10-01T00:03:11.639Z,13.15
2016-10-01T00:04:11.655Z,13.23
2016-10-01T00:05:11.683Z,13.13
2016-10-01T00:06:11.700Z,13.22
2016-10-01T00:07:11.717Z,13.23
2016-10-01T00:08:11.756Z,13.27
2016-10-01T00:09:11.754Z,13.15
2016-10-01T00:10:11.766Z,13.18
2016-10-01T00:11:11.781Z,13.11
2016-10-01T00:12:11.817Z,13.23
2016-10-01T00:13:11.829Z,13.23
2016-10-01T00:14:11.843Z,13.12
2016-10-01T00:15:11.860Z,13.2
2016-10-01T00:16:11.896Z,13.23
2016-10-01T00:17:11.902Z,13.27
2016-10-01T00:18:11.918Z,13.25
2016-10-01T00:19:11.948Z,13.18
2016-10-01T00:20:12.243Z,13.19
2016-10-01T00:21:11.975Z,13.23
2016-10-01T00:22:11.989Z,13.23
2016-10-01T00:23:12.015Z,13.22
2016-10-01T00:24:12.028Z,13.22
2016-10-01T00:25:12.065Z,13.28
2016-10-01T00:26:12.072Z,13.19
2016-10-01T00:27:12.086Z,13.23
2016-10-01T00:28:12.108Z,13.16
2016-10-01T00:29:12.127Z,13.3
2016-10-01T00:30:12.154Z,13.18
2016-10-01T00:31:12.174Z,13.19
2016-10-01T00:32:12.185Z,13.19
2016-10-01T00:33:12.203Z,13.19
2016-10-01T00:34:12.210Z,13.2
2016-10-01T00:35:12.240Z,13.16
2016-10-01T00:36:12.258Z,13.25
2016-10-01T00:37:12.273Z,13.27
2016-10-01T00:38:12.281Z,13.25
2016-10-01T00:39:12.309Z,13.35
2016-10-01T00:40:12.325Z,13.28
2016-10-01T00:41:12.352Z,13.27
2016-10-01T00:42:12.376Z,13.28
2016-10-01T00:43:12.398Z,13.28
2016-10-01T00:44:12.414Z,13.28
2016-10-01T00:45:12.414Z,13.25
2016-10-01T00:46:12.443Z,13.23
2016-10-01T00:47:12.451Z,13.31
2016-10-01T00:48:12.476Z,13.28
2016-10-01T00:49:12.505Z,13.27
2016-10-01T00:50:12.507Z,13.33
2016-10-01T00:51:12.522Z,13.31
2016-10-01T00:52:12.548Z,13.3
2016-10-01T00:53:12.574Z,13.23
2016-10-01T00:54:12.580Z,13.27
2016-10-01T00:55:12.594Z,13.28
2016-10-01T00:56:12.631Z,13.33
2016-10-01T00:57:12.633Z,13.42
2016-10-01T00:58:12.663Z,13.27
2016-10-01T00:59:12.670Z,13.28
2016-10-01T01:00:12.694Z,13.38
2016-10-01T01:01:12.725Z,13.39
2016-10-01T01:02:12.737Z,13.3
2016-10-01T01:03:12.757Z,13.31
2016-10-01T01:04:12.773Z,13.25
2016-10-01T01:05:12.804Z,13.31
2016-10-01T01:06:12.808Z,13.3
2016-10-01T01:07:12.833Z,13.44
2016-10-01T01:08:12.850Z,13.3
2016-10-01T01:09:12.868Z,13.42
2016-10-01T01:10:12.885Z,13.27
2016-10-01T01:11:12.899Z,13.38
2016-10-01T01:12:12.927Z,13.28
2016-10-01T01:13:12.954Z,13.37
2016-10-01T01:14:12.961Z,13.41
2016-10-01T01:15:12.970Z,13.39
2016-10-01T01:16:12.980Z,13.41
2016-10-01T01:17:13.070Z,13.38
2016-10-01T01:18:13.031Z,13.41
2016-10-01T01:19:13.103Z,13.46
2016-10-01T01:20:13.064Z,13.39
2016-10-01T01:21:13.175Z,13.33
2016-10-01T01:22:13.104Z,13.28
2016-10-01T01:23:13.167Z,13.42
2016-10-01T01:24:13.134Z,13.44
2016-10-01T01:25:13.219Z,13.35
2016-10-01T01:26:13.183Z,13.46
2016-10-01T01:27:13.257Z,13.42
2016-10-01T01:28:13.215Z,13.41
2016-10-01T01:29:13.275Z,13.35
2016-10-01T01:30:13.256Z,13.38
2016-10-01T01:31:13.272Z,13.39
2016-10-01T01:32:13.298Z,13.39
2016-10-01T01:33:13.314Z,13.39
2016-10-01T01:34:13.330Z,13.35
2016-10-01T01:35:13.365Z,13.42
2016-10-01T01:36:13.369Z,13.35
2016-10-01T01:37:13.393Z,13.28
2016-10-01T01:38:13.411Z,13.28
2016-10-01T01:39:13.424Z,13.23
2016-10-01T01:40:13.448Z,13.35
2016-10-01T01:41:13.467Z,13.27
2016-10-01T01:42:13.474Z,13.28
2016-10-01T01:43:13.503Z,13.3
2016-10-01T01:44:13.516Z,13.31
2016-10-01T01:45:13.530Z,13.27
2016-10-01T01:46:13.541Z,13.37
2016-10-01T01:47:13.577Z,13.3
2016-10-01T01:48:13.592Z,13.28
2016-10-01T01:49:13.604Z,13.37
2016-10-01T01:50:13.637Z,13.23
2016-10-01T01:51:13.656Z,13.31
2016-10-01T01:52:13.669Z,13.2
2016-10-01T01:53:13.691Z,13.31
2016-10-01T01:54:13.700Z,13.23
2016-10-01T01:55:13.706Z,13.18
2016-10-01T01:56:13.725Z,13.16
2016-10-01T01:57:13.753Z,13.2
2016-10-01T01:58:13.793Z,13.25
2016-10-01T01:59:13.797Z,13.15
2016-10-01T02:00:13.806Z,13.19
2016-10-01T02:01:13.831Z,13.2
2016-10-01T02:02:13.841Z,13.19
2016-10-01T02:03:13.856Z,13.22
2016-10-01T02:04:13.872Z,13.15
2016-10-01T02:05:13.890Z,13.08
2016-10-01T02:06:13.932Z,13.09
2016-10-01T02:07:13.931Z,13.09
2016-10-01T02:08:13.950Z,13.08
2016-10-01T02:09:13.974Z,13.05
2016-10-01T02:10:13.991Z,13.13
2016-10-01T02:11:14.012Z,13.09
2016-10-01T02:12:14.034Z,13.09
2016-10-01T02:13:14.058Z,13.05
2016-10-01T02:14:14.082Z,13.04
2016-10-01T02:15:14.080Z,13.04
2016-10-01T02:16:14.116Z,13.01
2016-10-01T02:17:14.137Z,13.01
2016-10-01T02:18:14.153Z,12.98
2016-10-01T02:19:14.159Z,12.98
2016-10-01T02:20:14.174Z,13.03
2016-10-01T02:21:14.191Z,13
2016-10-01T02:22:14.217Z,12.97
2016-10-01T02:23:14.229Z,12.94
2016-10-01T02:24:14.255Z,12.97
2016-10-01T02:25:14.264Z,12.97
2016-10-01T02:26:14.288Z,12.98
2016-10-01T02:27:14.309Z,12.91
2016-10-01T02:28:14.324Z,12.91
2016-10-01T02:29:14.340Z,12.91
2016-10-01T02:30:14.356Z,12.95
2016-10-01T02:31:14.378Z,12.94
2016-10-01T02:32:14.393Z,12.9
2016-10-01T02:33:14.406Z,12.95
2016-10-01T02:34:14.425Z,12.97
2016-10-01T02:35:14.449Z,12.9
2016-10-01T02:36:14.469Z,12.86
2016-10-01T02:37:14.480Z,12.98
2016-10-01T02:38:14.512Z,12.94
2016-10-01T02:39:14.529Z,13.01
2016-10-01T02:40:14.536Z,13
2016-10-01T02:41:14.569Z,13
2016-10-01T02:42:14.592Z,13.01
2016-10-01T02:43:14.601Z,12.97
2016-10-01T02:44:14.618Z,13.03
2016-10-01T02:45:14.634Z,12.97
2016-10-01T02:46:14.659Z,13.04
2016-10-01T02:47:14.675Z,13.08
2016-10-01T02:48:14.692Z,13.04
2016-10-01T02:49:14.705Z,13.04
2016-10-01T02:50:14.724Z,13
2016-10-01T02:51:14.743Z,13.04
2016-10-01T02:52:14.773Z,13.01
2016-10-01T02:53:14.792Z,12.95
2016-10-01T02:54:14.816Z,12.95
2016-10-01T02:55:14.823Z,13
2016-10-01T02:56:14.842Z,12.98
2016-10-01T02:57:14.858Z,13
2016-10-01T02:58:14.879Z,13.03
2016-10-01T02:59:14.896Z,13.04
2016-10-01T03:00:14.922Z,13.05
2016-10-01T03:01:14.922Z,13
2016-10-01T03:02:14.940Z,13
2016-10-01T03:03:14.970Z,13.01
2016-10-01T03:04:14.977Z,13.04
2016-10-01T03:05:15.001Z,13.05
2016-10-01T03:06:15.024Z,13.08
2016-10-01T03:07:15.045Z,13.04
2016-10-01T03:08:15.047Z,13.05
2016-10-01T03:09:15.091Z,13.04
2016-10-01T03:10:15.101Z,13.04
2016-10-01T03:11:15.104Z,13.01
2016-10-01T03:12:15.151Z,13.01
2016-10-01T03:13:15.164Z,13.11
2016-10-01T03:14:15.162Z,13.05
2016-10-01T03:15:15.194Z,13.09
2016-10-01T03:16:15.202Z,13.05
2016-10-01T03:17:15.214Z,13.08
2016-10-01T03:18:15.563Z,13.11
2016-10-01T03:19:15.595Z,13.08
2016-10-01T03:20:15.287Z,13.08
2016-10-01T03:21:15.299Z,13.09
2016-10-01T03:22:15.324Z,13.08
2016-10-01T03:23:15.341Z,13.11
2016-10-01T03:24:15.343Z,13.03
2016-10-01T03:25:15.373Z,13.01
2016-10-01T03:26:15.397Z,13.08
2016-10-01T03:27:15.414Z,13.13
2016-10-01T03:28:15.445Z,13.04
2016-10-01T03:29:15.446Z,13.01
2016-10-01T03:30:15.460Z,13.05
2016-10-01T03:31:15.470Z,12.98
2016-10-01T03:32:15.503Z,13.03
2016-10-01T03:33:15.526Z,13.08
2016-10-01T03:34:15.530Z,13.04
2016-10-01T03:35:15.556Z,12.94
2016-10-01T03:36:15.578Z,13.01
2016-10-01T03:37:15.595Z,12.95
2016-10-01T03:38:15.611Z,12.95
2016-10-01T03:39:15.623Z,12.87
2016-10-01T03:40:15.660Z,12.91
2016-10-01T03:41:15.660Z,12.85
2016-10-01T03:42:15.679Z,12.85
2016-10-01T03:43:15.695Z,12.85
2016-10-01T03:44:15.705Z,12.97
2016-10-01T03:45:15.728Z,12.76
2016-10-01T03:46:15.763Z,12.82
2016-10-01T03:47:15.774Z,12.76
2016-10-01T03:48:15.800Z,12.79
2016-10-01T03:49:15.812Z,12.78
2016-10-01T03:50:15.833Z,12.82
2016-10-01T03:51:15.847Z,12.7
2016-10-01T03:52:15.866Z,12.65
2016-10-01T03:53:15.881Z,12.67
2016-10-01T03:54:15.905Z,12.68
2016-10-01T03:55:15.903Z,12.67
2016-10-01T03:56:15.947Z,12.68
2016-10-01T03:57:15.971Z,12.7
2016-10-01T03:58:15.974Z,12.72
2016-10-01T03:59:15.981Z,12.67
2016-10-01T04:01:16.009Z,12.65
2016-10-01T04:02:16.035Z,12.72
2016-10-01T04:03:16.044Z,12.79
2016-10-01T04:04:16.073Z,12.68
2016-10-01T04:05:16.093Z,12.7
2016-10-01T04:06:16.104Z,12.7
2016-10-01T04:07:16.123Z,12.82
2016-10-01T04:08:16.150Z,12.68
2016-10-01T04:09:16.178Z,12.82
2016-10-01T04:10:16.172Z,12.85
2016-10-01T04:11:16.214Z,12.68
2016-10-01T04:12:16.212Z,12.8
2016-10-01T04:13:16.239Z,12.76
2016-10-01T04:14:16.241Z,12.79
2016-10-01T04:15:16.274Z,12.82
2016-10-01T04:16:16.297Z,12.78
2016-10-01T04:17:16.304Z,12.86
2016-10-01T04:18:16.330Z,12.79
2016-10-01T04:19:16.336Z,12.7
2016-10-01T04:20:16.368Z,12.87
2016-10-01T04:21:16.386Z,12.76
2016-10-01T04:22:16.396Z,12.75
2016-10-01T04:23:16.398Z,12.76
2016-10-01T04:24:16.438Z,12.73
2016-10-01T04:25:16.449Z,12.79
2016-10-01T04:26:16.492Z,12.75
2016-10-01T04:27:16.482Z,12.7
2016-10-01T04:28:16.501Z,12.82
2016-10-01T04:29:16.509Z,12.82
2016-10-01T04:30:16.542Z,12.7
2016-10-01T04:31:16.557Z,12.76
2016-10-01T04:32:16.595Z,12.67
2016-10-01T04:33:16.596Z,12.72
2016-10-01T04:34:16.621Z,12.68
2016-10-01T04:35:16.647Z,12.79
2016-10-01T04:36:16.650Z,12.68
2016-10-01T04:37:16.663Z,12.68
2016-10-01T04:38:16.681Z,12.67
2016-10-01T04:39:16.703Z,12.61
2016-10-01T04:40:16.732Z,12.64
2016-10-01T04:41:16.744Z,12.7
2016-10-01T04:42:16.749Z,12.65
2016-10-01T04:43:16.784Z,12.76
2016-10-01T04:44:16.795Z,12.67
2016-10-01T04:45:16.808Z,12.7
2016-10-01T04:46:16.835Z,12.67
2016-10-01T04:47:16.848Z,12.68
2016-10-01T04:48:16.877Z,12.73
2016-10-01T04:49:16.898Z,12.7
2016-10-01T04:50:16.915Z,12.8
2016-10-01T04:51:16.920Z,12.8
2016-10-01T04:52:16.942Z,12.7
2016-10-01T04:53:16.963Z,12.76
2016-10-01T04:54:16.978Z,12.83
2016-10-01T04:55:17.007Z,12.79
2016-10-01T04:56:17.034Z,12.82
2016-10-01T04:57:17.017Z,12.87
2016-10-01T04:58:17.051Z,12.8
2016-10-01T04:59:17.070Z,12.8
2016-10-01T05:00:17.095Z,12.8
2016-10-01T05:01:17.122Z,12.79
2016-10-01T05:02:17.139Z,12.68
2016-10-01T05:03:17.154Z,12.79
2016-10-01T05:04:17.160Z,12.65
2016-10-01T05:05:17.168Z,12.82
2016-10-01T05:06:17.189Z,12.8
2016-10-01T05:07:17.221Z,12.79
2016-10-01T05:08:17.238Z,12.75
2016-10-01T05:09:17.251Z,12.78
2016-10-01T05:10:17.277Z,12.68
2016-10-01T05:11:17.282Z,12.78
2016-10-01T05:12:17.313Z,12.78
2016-10-01T05:13:17.323Z,12.82
2016-10-01T05:14:17.672Z,12.78
2016-10-01T05:15:17.363Z,12.82
2016-10-01T05:16:17.375Z,12.8
2016-10-01T05:17:17.400Z,12.76
2016-10-01T05:18:17.420Z,12.78
2016-10-01T05:19:17.429Z,12.68
2016-10-01T05:20:17.449Z,12.76
2016-10-01T05:21:17.480Z,12.83
2016-10-01T05:22:17.490Z,12.79
2016-10-01T05:23:17.513Z,12.67
2016-10-01T05:24:17.535Z,12.8
2016-10-01T05:25:17.546Z,12.82
2016-10-01T05:26:17.566Z,12.68
2016-10-01T05:27:17.585Z,12.79
2016-10-01T05:28:17.596Z,12.85
2016-10-01T05:29:17.626Z,12.82
2016-10-01T05:30:17.645Z,12.8
2016-10-01T05:31:17.670Z,12.76
2016-10-01T05:32:17.684Z,12.76
2016-10-01T05:33:17.698Z,12.75
2016-10-01T05:34:17.690Z,12.85
2016-10-01T05:35:17.735Z,12.78
2016-10-01T05:36:17.755Z,12.8
2016-10-01T05:37:17.764Z,12.78
2016-10-01T05:38:17.790Z,12.8
2016-10-01T05:39:17.803Z,12.78
2016-10-01T05:40:17.819Z,12.79
2016-10-01T05:41:17.832Z,12.8
2016-10-01T05:42:17.851Z,12.79
2016-10-01T05:43:17.887Z,12.78
2016-10-01T05:44:17.885Z,12.76
2016-10-01T05:45:17.908Z,12.79
2016-10-01T05:46:17.934Z,12.79
2016-10-01T05:47:17.939Z,12.76
2016-10-01T05:48:17.972Z,12.91
2016-10-01T05:49:17.985Z,12.79
2016-10-01T05:50:18.005Z,12.9
2016-10-01T05:51:18.017Z,12.76
2016-10-01T05:52:18.032Z,12.76
2016-10-01T05:53:18.053Z,12.87
2016-10-01T05:54:18.082Z,12.87
2016-10-01T05:55:18.093Z,12.85
2016-10-01T05:56:18.117Z,12.86
2016-10-01T05:57:18.147Z,12.83
2016-10-01T05:58:18.134Z,12.85
2016-10-01T05:59:18.165Z,12.85
2016-10-01T06:00:18.177Z,12.85
2016-10-01T06:01:18.196Z,12.9
2016-10-01T06:02:18.212Z,12.9
2016-10-01T06:03:18.233Z,12.9
2016-10-01T06:04:18.246Z,12.94
2016-10-01T06:05:18.268Z,12.93
2016-10-01T06:06:18.305Z,12.91
2016-10-01T06:07:18.296Z,12.94
2016-10-01T06:08:18.329Z,12.87
2016-10-01T06:09:18.339Z,12.98
2016-10-01T06:10:18.358Z,12.91
2016-10-01T06:11:18.378Z,12.97
2016-10-01T06:12:18.406Z,13
2016-10-01T06:13:18.407Z,13.03
2016-10-01T06:14:18.445Z,12.95
2016-10-01T06:15:18.456Z,12.98
2016-10-01T06:16:18.475Z,13.04
2016-10-01T06:17:18.494Z,12.97
2016-10-01T06:18:18.521Z,13.03
2016-10-01T06:19:18.529Z,13.03
2016-10-01T06:20:18.562Z,13
2016-10-01T06:21:18.572Z,12.97
2016-10-01T06:22:18.584Z,12.98
2016-10-01T06:23:18.612Z,13.01
2016-10-01T06:24:18.622Z,13.01
2016-10-01T06:25:18.648Z,12.94
2016-10-01T06:26:18.660Z,12.98
2016-10-01T06:27:18.665Z,12.97
2016-10-01T06:28:18.703Z,13.01
2016-10-01T06:29:18.710Z,13.01
2016-10-01T06:30:18.730Z,12.98
2016-10-01T06:31:18.740Z,13.05
2016-10-01T06:32:18.789Z,12.98
2016-10-01T06:33:18.790Z,13
2016-10-01T06:34:18.796Z,13.08
2016-10-01T06:35:18.827Z,13.01
2016-10-01T06:36:18.848Z,13.05
2016-10-01T06:37:18.858Z,13.04
2016-10-01T06:38:18.884Z,13.05
2016-10-01T06:39:18.901Z,13.09
2016-10-01T06:40:18.940Z,13.11
2016-10-01T06:41:18.931Z,13.08
2016-10-01T06:42:18.937Z,13.08
2016-10-01T06:43:18.973Z,13.15
2016-10-01T06:44:18.978Z,13.15
2016-10-01T06:45:18.992Z,13.12
2016-10-01T06:46:19.027Z,13.16
2016-10-01T06:47:19.048Z,13.16
2016-10-01T06:48:19.071Z,13.19
2016-10-01T06:49:19.089Z,13.19
2016-10-01T06:50:19.087Z,13.2
2016-10-01T06:51:19.109Z,13.15
2016-10-01T06:52:19.142Z,13.19
2016-10-01T06:53:19.140Z,13.2
2016-10-01T06:54:19.171Z,13.16
2016-10-01T06:55:19.197Z,13.22
2016-10-01T06:56:19.213Z,13.23
2016-10-01T06:57:19.231Z,13.25
2016-10-01T06:58:19.243Z,13.19
2016-10-01T06:59:19.253Z,13.3
2016-10-01T07:00:19.285Z,13.33
2016-10-01T07:01:19.292Z,13.28
2016-10-01T07:02:19.314Z,13.28
2016-10-01T07:03:19.319Z,13.3
2016-10-01T07:04:19.349Z,13.25
2016-10-01T07:05:19.372Z,13.2
2016-10-01T07:06:19.378Z,13.28
2016-10-01T07:07:19.402Z,13.31
2016-10-01T07:08:19.432Z,13.23
2016-10-01T07:09:19.451Z,13.23
2016-10-01T07:10:19.460Z,13.28
2016-10-01T07:11:19.483Z,13.35
2016-10-01T07:12:19.501Z,13.37
2016-10-01T07:13:19.518Z,13.31
2016-10-01T07:14:19.536Z,13.27
2016-10-01T07:15:19.552Z,13.35
2016-10-01T07:16:34.406Z,13.38
2016-10-01T07:17:19.602Z,13.31
2016-10-01T07:18:19.597Z,13.38
2016-10-01T07:19:19.623Z,13.38
2016-10-01T07:20:19.644Z,13.41
2016-10-01T07:21:19.669Z,13.31
2016-10-01T07:22:19.698Z,13.44
2016-10-01T07:23:19.707Z,13.46
2016-10-01T07:24:19.721Z,13.44
2016-10-01T07:25:19.741Z,13.41
2016-10-01T07:26:19.768Z,13.49
2016-10-01T07:27:19.785Z,13.39
2016-10-01T07:28:19.783Z,13.53
2016-10-01T07:29:19.820Z,13.56
2016-10-01T07:30:19.823Z,13.56
2016-10-01T07:31:19.850Z,13.56
2016-10-01T07:32:19.871Z,13.59
2016-10-01T07:33:19.882Z,13.41
2016-10-01T07:34:19.896Z,13.5
2016-10-01T07:35:19.933Z,13.53
2016-10-01T07:36:19.954Z,13.53
2016-10-01T07:37:19.969Z,13.57
2016-10-01T07:38:19.984Z,13.5
2016-10-01T07:39:19.996Z,13.52
2016-10-01T07:40:20.020Z,13.57
2016-10-01T07:41:20.036Z,13.6
2016-10-01T07:42:20.043Z,13.71
2016-10-01T07:43:20.076Z,13.67
2016-10-01T07:44:20.083Z,13.68
2016-10-01T07:45:20.116Z,13.63
2016-10-01T07:46:20.121Z,13.77
2016-10-01T07:47:20.152Z,13.81
2016-10-01T07:48:20.178Z,13.72
2016-10-01T07:49:20.187Z,13.7
2016-10-01T07:50:20.209Z,13.77
2016-10-01T07:51:20.232Z,13.83
2016-10-01T07:52:20.250Z,13.85
2016-10-01T07:53:20.256Z,13.83
2016-10-01T07:54:20.272Z,13.81
2016-10-01T07:55:20.295Z,13.81
2016-10-01T07:56:20.309Z,13.83
2016-10-01T07:57:20.325Z,13.87
2016-10-01T07:58:20.361Z,13.85
2016-10-01T07:59:20.378Z,13.77
2016-10-01T08:00:20.384Z,13.78
2016-10-01T08:01:20.417Z,13.75
2016-10-01T08:02:20.428Z,13.7
2016-10-01T08:03:20.444Z,13.79
2016-10-01T08:04:20.470Z,13.72
2016-10-01T08:05:20.508Z,13.79
2016-10-01T08:06:20.506Z,13.71
2016-10-01T08:07:20.509Z,13.71
2016-10-01T08:08:20.544Z,13.75
2016-10-01T08:09:20.557Z,13.74
2016-10-01T08:10:20.585Z,13.74
2016-10-01T08:11:20.599Z,13.75
2016-10-01T08:12:20.623Z,13.71
2016-10-01T08:13:20.641Z,13.77
2016-10-01T08:14:20.656Z,13.71
2016-10-01T08:15:20.681Z,13.81
2016-10-01T08:16:20.679Z,13.87
2016-10-01T08:17:20.707Z,13.86
2016-10-01T08:18:20.737Z,13.83
2016-10-01T08:19:20.753Z,13.79
2016-10-01T08:20:20.750Z,13.87
2016-10-01T08:21:20.772Z,13.86
2016-10-01T08:22:20.812Z,13.87
2016-10-01T08:23:20.816Z,13.89
2016-10-01T08:24:20.850Z,13.83
2016-10-01T08:25:20.870Z,13.81
2016-10-01T08:26:20.876Z,13.86
2016-10-01T08:27:20.892Z,13.9
2016-10-01T08:28:20.914Z,13.86
2016-10-01T08:29:20.941Z,13.81
2016-10-01T08:30:20.956Z,13.92
2016-10-01T08:31:20.980Z,13.86
2016-10-01T08:32:20.987Z,13.86
2016-10-01T08:33:21.012Z,13.96
2016-10-01T08:34:21.043Z,13.93
2016-10-01T08:35:21.049Z,13.93
2016-10-01T08:36:21.070Z,13.96
2016-10-01T08:37:21.081Z,13.97
2016-10-01T08:38:21.111Z,13.95
2016-10-01T08:39:21.116Z,13.99
2016-10-01T08:40:21.139Z,13.99
2016-10-01T08:41:21.168Z,14.04
2016-10-01T08:42:21.185Z,14.05
2016-10-01T08:43:21.200Z,14
2016-10-01T08:44:21.235Z,14.03
2016-10-01T08:45:21.245Z,14.05
2016-10-01T08:46:21.267Z,14.12
2016-10-01T08:47:21.280Z,14.1
2016-10-01T08:48:21.297Z,14.03
2016-10-01T08:49:21.305Z,14.2
2016-10-01T08:50:21.337Z,14.2
2016-10-01T08:51:21.353Z,14.2
2016-10-01T08:52:21.387Z,14.2
2016-10-01T08:53:21.391Z,14.2
2016-10-01T08:54:21.421Z,14.23
2016-10-01T08:55:21.422Z,14.23
2016-10-01T08:56:21.453Z,14.3
2016-10-01T08:57:21.475Z,14.43
2016-10-01T08:58:21.499Z,14.47
2016-10-01T08:59:21.505Z,14.4
2016-10-01T09:00:21.517Z,14.51
2016-10-01T09:01:21.528Z,14.48
2016-10-01T09:02:21.576Z,14.53
2016-10-01T09:03:21.573Z,14.59
2016-10-01T09:04:21.612Z,14.59
2016-10-01T09:05:21.617Z,14.63
2016-10-01T09:06:21.646Z,14.55
2016-10-01T09:07:21.652Z,14.58
2016-10-01T09:08:21.676Z,14.66
2016-10-01T09:09:21.681Z,14.51
2016-10-01T09:10:21.713Z,14.73
2016-10-01T09:11:21.733Z,14.69
2016-10-01T09:12:21.758Z,14.69
2016-10-01T09:13:21.775Z,14.69
2016-10-01T09:14:21.791Z,14.6
2016-10-01T09:15:21.814Z,14.62
2016-10-01T09:16:21.837Z,14.58
2016-10-01T09:17:21.848Z,14.58
2016-10-01T09:18:21.884Z,14.54
2016-10-01T09:19:21.889Z,14.63
2016-10-01T09:20:21.900Z,14.6
2016-10-01T09:21:21.938Z,14.68
2016-10-01T09:22:21.943Z,14.7
2016-10-01T09:23:21.960Z,14.62
2016-10-01T09:24:21.986Z,14.65
2016-10-01T09:25:22.016Z,14.7
2016-10-01T09:26:22.037Z,14.58
2016-10-01T09:27:22.038Z,14.68
2016-10-01T09:28:22.068Z,14.59
2016-10-01T09:29:22.082Z,14.63
2016-10-01T09:30:22.105Z,14.6
2016-10-01T09:31:22.129Z,14.66
2016-10-01T09:32:22.140Z,14.5
2016-10-01T09:33:22.158Z,14.63
2016-10-01T09:34:22.199Z,14.63
2016-10-01T09:35:22.204Z,14.68
2016-10-01T09:36:22.216Z,14.55
2016-10-01T09:37:22.233Z,14.62
2016-10-01T09:38:22.255Z,14.55
2016-10-01T09:39:22.261Z,14.62
2016-10-01T09:40:22.291Z,14.63
2016-10-01T09:41:22.327Z,14.7
2016-10-01T09:42:22.332Z,14.72
2016-10-01T09:43:22.365Z,14.62
2016-10-01T09:44:22.659Z,14.72
2016-10-01T09:45:22.389Z,14.65
2016-10-01T09:46:22.728Z,14.65
2016-10-01T09:47:22.436Z,14.65
2016-10-01T09:48:22.454Z,14.65
2016-10-01T09:49:22.481Z,14.48
2016-10-01T09:50:22.491Z,14.59
2016-10-01T09:51:22.501Z,14.48
2016-10-01T09:52:22.523Z,14.55
2016-10-01T09:53:22.549Z,14.55
2016-10-01T09:54:22.569Z,14.58
2016-10-01T09:55:22.594Z,14.59
2016-10-01T09:56:22.614Z,14.58
2016-10-01T09:57:22.636Z,14.65
2016-10-01T09:58:22.639Z,14.55
2016-10-01T09:59:22.669Z,14.69
2016-10-01T10:00:22.690Z,14.66
2016-10-01T10:01:22.690Z,14.62
2016-10-01T10:02:22.720Z,14.69
2016-10-01T10:03:22.731Z,14.7
2016-10-01T10:04:22.753Z,14.63
2016-10-01T10:05:22.788Z,14.63
2016-10-01T10:06:22.805Z,14.77
2016-10-01T10:07:22.811Z,14.66
2016-10-01T10:08:22.839Z,14.65
2016-10-01T10:09:22.862Z,14.66
2016-10-01T10:10:22.882Z,14.68
2016-10-01T10:11:22.888Z,14.69
2016-10-01T10:12:22.899Z,14.72
2016-10-01T10:13:22.935Z,14.6
2016-10-01T10:14:22.948Z,14.6
2016-10-01T10:15:22.980Z,14.6
2016-10-01T10:16:22.989Z,14.63
2016-10-01T10:17:23.015Z,14.54
2016-10-01T10:18:23.033Z,14.59
2016-10-01T10:19:23.041Z,14.63
2016-10-01T10:20:23.075Z,14.66
2016-10-01T10:21:23.104Z,14.62
2016-10-01T10:22:23.112Z,14.6
2016-10-01T10:23:23.130Z,14.63
2016-10-01T10:24:23.154Z,14.69
2016-10-01T10:25:23.163Z,14.82
2016-10-01T10:26:23.188Z,14.81
2016-10-01T10:27:23.192Z,14.94
2016-10-01T10:28:23.237Z,14.94
2016-10-01T10:29:23.248Z,14.96
2016-10-01T10:30:23.268Z,15.1
2016-10-01T10:31:23.270Z,15.07
2016-10-01T10:32:23.301Z,15.09
2016-10-01T10:33:23.318Z,15
2016-10-01T10:34:23.322Z,14.97
2016-10-01T10:35:23.359Z,14.96
2016-10-01T10:36:23.373Z,14.91
2016-10-01T10:37:23.407Z,14.89
2016-10-01T10:38:23.424Z,14.88
2016-10-01T10:39:23.434Z,14.84
2016-10-01T10:40:23.450Z,14.91
2016-10-01T10:41:23.453Z,14.81
2016-10-01T10:42:23.499Z,14.81
2016-10-01T10:43:23.520Z,14.86
2016-10-01T10:44:23.533Z,14.79
2016-10-01T10:45:23.566Z,14.85
2016-10-01T10:46:23.573Z,14.88
2016-10-01T10:47:23.590Z,14.89
2016-10-01T10:48:23.620Z,14.84
2016-10-01T10:49:23.634Z,14.96
2016-10-01T10:50:23.654Z,15.02
2016-10-01T10:51:23.675Z,15
2016-10-01T10:52:23.682Z,14.96
2016-10-01T10:53:23.719Z,14.85
2016-10-01T10:54:23.723Z,14.85
2016-10-01T10:55:23.759Z,14.88
2016-10-01T10:56:23.821Z,14.85
2016-10-01T10:57:23.784Z,14.82
2016-10-01T10:58:23.798Z,14.86
2016-10-01T10:59:23.827Z,14.85
2016-10-01T11:00:23.850Z,14.89
2016-10-01T11:01:23.862Z,14.99
2016-10-01T11:02:23.900Z,14.92
2016-10-01T11:03:23.908Z,14.88
2016-10-01T11:04:23.933Z,14.99
2016-10-01T11:05:23.942Z,15.02
2016-10-01T11:06:23.964Z,15.14
2016-10-01T11:07:23.984Z,15.04
2016-10-01T11:08:24.000Z,15.1
2016-10-01T11:09:24.029Z,15.1
2016-10-01T11:10:24.037Z,15.06
2016-10-01T11:11:24.060Z,15.06
2016-10-01T11:12:24.071Z,15.17
2016-10-01T11:13:24.095Z,15.29
2016-10-01T11:14:24.119Z,15.37
2016-10-01T11:15:24.145Z,15.28
2016-10-01T11:16:24.152Z,15.43
2016-10-01T11:17:24.180Z,15.37
2016-10-01T11:18:24.187Z,15.43
2016-10-01T11:19:24.205Z,15.55
2016-10-01T11:20:24.240Z,15.55
2016-10-01T11:21:24.251Z,15.55
2016-10-01T11:22:24.268Z,15.61
2016-10-01T11:23:24.297Z,15.67
2016-10-01T11:24:24.327Z,15.64
2016-10-01T11:25:24.361Z,15.57
2016-10-01T11:26:24.350Z,15.64
2016-10-01T11:27:24.380Z,15.67
2016-10-01T11:28:24.378Z,15.67
2016-10-01T11:29:24.438Z,15.61
2016-10-01T11:30:24.435Z,15.64
2016-10-01T11:31:24.451Z,15.64
2016-10-01T11:32:24.482Z,15.72
2016-10-01T11:33:24.481Z,15.68
2016-10-01T11:34:24.528Z,15.67
2016-10-01T11:35:24.527Z,15.67
2016-10-01T11:36:24.559Z,15.67
2016-10-01T11:37:24.572Z,15.75
2016-10-01T11:38:24.595Z,15.7
2016-10-01T11:39:24.617Z,15.64
2016-10-01T11:40:24.635Z,15.65
2016-10-01T11:41:24.648Z,15.68
2016-10-01T11:42:24.671Z,15.67
2016-10-01T11:43:24.696Z,15.73
2016-10-01T11:44:24.721Z,15.68
2016-10-01T11:45:24.724Z,15.76
2016-10-01T11:46:24.757Z,15.7
2016-10-01T11:47:24.780Z,15.83
2016-10-01T11:48:24.787Z,15.82
2016-10-01T11:49:24.810Z,15.72
2016-10-01T11:50:24.829Z,15.73
2016-10-01T11:51:24.852Z,15.79
2016-10-01T11:52:24.865Z,15.83
2016-10-01T11:53:24.908Z,15.77
2016-10-01T11:54:24.906Z,15.88
2016-10-01T11:55:24.936Z,15.88
2016-10-01T11:56:24.953Z,15.95
2016-10-01T11:57:24.972Z,15.91
2016-10-01T11:58:25.000Z,15.84
2016-10-01T11:59:25.014Z,15.92
2016-10-01T12:00:25.040Z,15.9
2016-10-01T12:01:25.043Z,15.91
2016-10-01T12:02:25.077Z,15.91
2016-10-01T12:03:25.097Z,15.82
2016-10-01T12:04:25.116Z,15.86
2016-10-01T12:05:25.133Z,15.84
2016-10-01T12:06:25.164Z,15.86
2016-10-01T12:07:25.166Z,15.92
2016-10-01T12:08:25.188Z,15.9
2016-10-01T12:09:25.219Z,15.88
2016-10-01T12:10:25.248Z,15.95
2016-10-01T12:11:25.273Z,15.94
2016-10-01T12:12:25.302Z,16.02
2016-10-01T12:13:25.306Z,16.09
2016-10-01T12:14:25.324Z,16.16
2016-10-01T12:15:25.326Z,16.28
2016-10-01T12:16:25.354Z,16.31
2016-10-01T12:17:25.380Z,16.32
2016-10-01T12:18:25.400Z,16.42
2016-10-01T12:19:25.414Z,16.47
2016-10-01T12:20:25.439Z,16.53
2016-10-01T12:21:25.459Z,16.49
2016-10-01T12:22:25.477Z,16.57
2016-10-01T12:23:25.497Z,16.66
2016-10-01T12:24:25.524Z,16.57
2016-10-01T12:25:25.535Z,16.58
2016-10-01T12:26:25.561Z,16.57
2016-10-01T12:27:25.586Z,16.6
2016-10-01T12:28:25.608Z,16.6
2016-10-01T12:29:25.616Z,16.66
2016-10-01T12:30:25.639Z,16.54
2016-10-01T12:31:25.664Z,16.56
2016-10-01T12:32:25.688Z,16.56
2016-10-01T12:33:25.696Z,16.54
2016-10-01T12:34:25.716Z,16.57
2016-10-01T12:35:25.753Z,16.54
2016-10-01T12:36:25.779Z,16.51
2016-10-01T12:37:25.786Z,16.46
2016-10-01T12:38:25.808Z,16.41
2016-10-01T12:39:25.828Z,16.53
2016-10-01T12:40:25.857Z,16.56
2016-10-01T12:41:25.862Z,16.61
2016-10-01T12:42:25.881Z,16.6
2016-10-01T12:43:25.916Z,16.57
2016-10-01T12:44:25.932Z,16.66
2016-10-01T12:45:25.943Z,16.5
2016-10-01T12:46:25.975Z,16.57
2016-10-01T12:47:25.995Z,16.53
2016-10-01T12:48:26.017Z,16.53
2016-10-01T12:49:26.035Z,16.42
2016-10-01T12:50:26.057Z,16.35
2016-10-01T12:51:26.069Z,16.42
2016-10-01T12:52:26.103Z,16.51
2016-10-01T12:53:26.125Z,16.54
2016-10-01T12:54:26.148Z,16.54
2016-10-01T12:55:26.157Z,16.47
2016-10-01T12:56:26.174Z,16.38
2016-10-01T12:57:26.206Z,16.39